createdAt,value
2022-10-01T00:04:13.146Z,56.04
2022-10-01T00:09:09.882Z,56.95
2022-10-01T00:14:09.729Z,56.75
2022-10-01T00:19:06.331Z,55.30
2022-10-01T00:24:04.981Z,54.40
2022-10-01T00:29:04.516Z,53.08
2022-10-01T00:34:05.003Z,52.23
2022-10-01T00:39:01.694Z,51.45
2022-10-01T00:44:02.857Z,50.88
2022-10-01T00:49:05.406Z,50.37
2022-10-01T00:54:11.664Z,51.14
2022-10-01T00:59:10.546Z,50.39
2022-10-01T01:04:17.909Z,49.69
2022-10-01T01:09:14.829Z,49.54
2022-10-01T01:14:17.828Z,49.96
2022-10-01T01:19:22.535Z,49.39
2022-10-01T01:24:36.377Z,50.22
2022-10-01T01:29:39.302Z,54.44
2022-10-01T01:34:39.386Z,54.76
2022-10-01T01:39:36.244Z,55.19
2022-10-01T01:44:37.138Z,54.46
2022-10-01T01:49:34.138Z,53.29
2022-10-01T01:54:34.149Z,53.14
2022-10-01T01:59:31.853Z,52.33
2022-10-01T02:04:31.720Z,53.32
2022-10-01T02:09:31.032Z,51.82
2022-10-01T02:14:35.524Z,51.65
2022-10-01T02:19:36.175Z,52.38
2022-10-01T02:24:36.896Z,51.91
2022-10-01T02:29:35.534Z,51.23
2022-10-01T02:34:33.252Z,50.02
2022-10-01T02:39:32.425Z,50.29
2022-10-01T02:44:37.367Z,51.14
2022-10-01T02:49:42.410Z,53.66
2022-10-01T02:54:45.010Z,54.32
2022-10-01T02:59:42.149Z,54.51
2022-10-01T03:04:39.653Z,54.77
2022-10-01T03:09:42.718Z,55.17
2022-10-01T03:14:39.729Z,55.58
2022-10-01T03:19:36.574Z,57.78
2022-10-01T03:24:34.461Z,56.53
2022-10-01T03:29:31.251Z,54.79
2022-10-01T03:34:28.077Z,56.57
2022-10-01T03:39:26.702Z,58.70
2022-10-01T03:44:24.087Z,60.23
2022-10-01T03:49:20.917Z,60.39
2022-10-01T03:54:17.733Z,58.96
2022-10-01T03:59:16.923Z,57.78
2022-10-01T04:04:14.745Z,57.15
2022-10-01T04:09:11.406Z,56.45
2022-10-01T04:14:08.492Z,56.64
2022-10-01T04:19:05.450Z,56.12
2022-10-01T04:24:04.542Z,56.17
2022-10-01T04:29:01.524Z,56.31
2022-10-01T04:34:06.114Z,56.57
2022-10-01T04:39:03.435Z,57.10
2022-10-01T04:44:00.644Z,56.11
2022-10-01T04:49:07.591Z,56.72
2022-10-01T04:54:04.926Z,56.55
2022-10-01T04:59:01.878Z,55.82
2022-10-01T05:03:58.626Z,55.24
2022-10-01T05:08:55.250Z,54.50
2022-10-01T05:13:55.518Z,55.59
2022-10-01T05:18:52.646Z,56.51
2022-10-01T05:23:49.269Z,56.53
2022-10-01T05:28:45.977Z,56.01
2022-10-01T05:33:46.060Z,55.25
2022-10-01T05:38:42.966Z,53.96
2022-10-01T05:43:39.637Z,54.61
2022-10-01T05:48:37.256Z,55.99
2022-10-01T05:53:36.797Z,56.74
2022-10-01T05:58:33.622Z,57.32
2022-10-01T06:03:30.623Z,57.93
2022-10-01T06:08:28.097Z,57.75
2022-10-01T06:13:26.138Z,57.27
2022-10-01T06:18:22.969Z,56.99
2022-10-01T06:23:19.748Z,57.41
2022-10-01T06:28:18.833Z,57.09
2022-10-01T06:33:17.122Z,56.59
2022-10-01T06:38:13.780Z,56.27
2022-10-01T06:43:10.364Z,56.60
2022-10-01T06:48:09.314Z,56.11
2022-10-01T06:53:06.750Z,55.00
2022-10-01T06:58:04.078Z,54.76
2022-10-01T07:03:01.502Z,54.70
2022-10-01T07:07:59.992Z,53.99
2022-10-01T07:13:05.422Z,53.78
2022-10-01T07:18:04.477Z,53.84
2022-10-01T07:23:01.496Z,53.42
2022-10-01T07:28:05.692Z,53.02
2022-10-01T07:33:02.390Z,52.92
2022-10-01T07:37:59.646Z,51.73
2022-10-01T07:42:59.475Z,52.10
2022-10-01T07:47:57.865Z,52.54
2022-10-01T07:52:55.652Z,52.92
2022-10-01T07:57:52.562Z,52.73
2022-10-01T08:02:50.225Z,52.77
2022-10-01T08:07:49.554Z,53.35
2022-10-01T08:12:48.292Z,53.87
2022-10-01T08:17:45.118Z,53.93
2022-10-01T08:22:42.501Z,53.51
2022-10-01T08:27:42.942Z,53.30
2022-10-01T08:32:39.575Z,52.43
2022-10-01T08:37:36.357Z,53.52
2022-10-01T08:42:41.203Z,51.50
2022-10-01T08:47:40.449Z,51.74
2022-10-01T08:52:41.097Z,51.63
2022-10-01T08:57:40.010Z,52.20
2022-10-01T09:02:39.551Z,52.97
2022-10-01T09:07:45.599Z,52.46
2022-10-01T09:12:47.729Z,50.99
2022-10-01T09:17:52.595Z,51.09
2022-10-01T09:22:55.246Z,51.46
2022-10-01T09:27:52.816Z,51.01
2022-10-01T09:32:52.059Z,50.55
2022-10-01T09:37:51.611Z,50.53
2022-10-01T09:42:48.288Z,50.62
2022-10-01T09:47:48.474Z,50.74
2022-10-01T09:52:53.709Z,50.65
2022-10-01T09:57:52.507Z,50.70
2022-10-01T10:02:50.891Z,50.09
2022-10-01T10:07:50.458Z,50.01
2022-10-01T10:12:48.513Z,49.36
2022-10-01T10:17:48.552Z,47.25
2022-10-01T10:22:45.143Z,47.33
2022-10-01T10:27:53.587Z,46.06
2022-10-01T10:32:52.130Z,45.94
2022-10-01T10:37:50.640Z,46.33
2022-10-01T10:42:53.231Z,46.47
2022-10-01T10:47:52.576Z,46.98
2022-10-01T10:52:49.280Z,46.69
2022-10-01T10:57:46.478Z,46.57
2022-10-01T11:02:50.549Z,46.59
2022-10-01T11:07:48.704Z,45.97
2022-10-01T11:13:06.159Z,45.83
2022-10-01T11:18:13.841Z,45.15
2022-10-01T11:23:20.868Z,44.76
2022-10-01T11:28:24.339Z,44.21
2022-10-01T11:33:28.738Z,44.62
2022-10-01T11:38:38.882Z,44.95
2022-10-01T11:43:39.019Z,44.72
2022-10-01T11:48:41.220Z,44.46
2022-10-01T11:53:43.028Z,42.50
2022-10-01T11:58:50.569Z,42.78
2022-10-01T12:04:03.415Z,42.90
2022-10-01T12:09:05.627Z,44.00
2022-10-01T12:14:04.812Z,44.64
2022-10-01T12:19:10.528Z,44.74
2022-10-01T12:24:11.850Z,44.89
2022-10-01T12:29:12.855Z,44.62
2022-10-01T12:34:15.393Z,43.23
2022-10-01T12:39:28.592Z,42.93
2022-10-01T12:44:36.599Z,42.59
2022-10-01T12:49:38.033Z,42.82
2022-10-01T12:54:45.231Z,43.23
2022-10-01T12:59:48.202Z,42.43
2022-10-01T13:05:02.805Z,43.01
2022-10-01T13:10:03.638Z,40.91
2022-10-01T13:15:00.497Z,41.22
2022-10-01T13:20:00.642Z,39.78
2022-10-01T13:25:00.913Z,39.21
2022-10-01T13:30:01.616Z,38.01
2022-10-01T13:35:00.429Z,38.14
2022-10-01T13:40:00.396Z,39.21
2022-10-01T13:45:16.116Z,38.10
2022-10-01T13:50:28.779Z,38.48
2022-10-01T13:55:27.423Z,40.04
2022-10-01T14:00:24.576Z,38.50
2022-10-01T14:05:33.899Z,40.43
2022-10-01T14:10:35.548Z,39.44
2022-10-01T14:15:57.581Z,42.35
2022-10-01T14:26:26.029Z,39.84
2022-10-01T14:31:29.327Z,39.75
2022-10-01T14:36:31.774Z,38.92
2022-10-01T14:41:33.627Z,38.33
2022-10-01T14:46:35.499Z,38.20
2022-10-01T14:51:33.257Z,38.38
2022-10-01T14:56:32.631Z,37.78
2022-10-01T15:01:29.878Z,39.92
2022-10-01T15:06:29.141Z,40.83
2022-10-01T15:11:27.762Z,40.79
2022-10-01T15:16:26.735Z,40.52
2022-10-01T15:21:36.966Z,40.95
2022-10-01T15:26:35.159Z,41.10
2022-10-01T15:31:36.972Z,41.00
2022-10-01T15:36:37.571Z,41.62
2022-10-01T15:41:37.303Z,41.56
2022-10-01T15:46:36.803Z,40.97
2022-10-01T15:51:37.596Z,40.87
2022-10-01T15:56:41.117Z,41.31
2022-10-01T16:01:39.328Z,41.51
2022-10-01T16:06:41.163Z,41.72
2022-10-01T16:11:51.664Z,42.30
2022-10-01T16:16:50.191Z,42.32
2022-10-01T16:22:15.481Z,42.59
2022-10-01T16:27:17.546Z,42.66
2022-10-01T16:32:47.481Z,42.76
2022-10-01T16:37:46.009Z,42.61
2022-10-01T16:42:45.396Z,43.31
2022-10-01T16:47:42.463Z,43.10
2022-10-01T16:52:39.649Z,44.88
2022-10-01T16:57:37.609Z,45.62
2022-10-01T17:02:37.576Z,46.16
2022-10-01T17:07:34.473Z,45.99
2022-10-01T17:12:33.793Z,46.14
2022-10-01T17:17:32.135Z,45.80
2022-10-01T17:22:29.920Z,46.38
2022-10-01T17:27:26.651Z,47.44
2022-10-01T17:32:44.536Z,50.04
2022-10-01T17:37:42.657Z,49.85
2022-10-01T17:43:13.211Z,48.25
2022-10-01T17:48:25.497Z,48.76
2022-10-01T17:53:23.452Z,48.77
2022-10-01T17:58:20.371Z,48.77
2022-10-01T18:03:18.897Z,48.90
2022-10-01T18:08:15.698Z,49.08
2022-10-01T18:24:37.429Z,49.32
2022-10-01T18:29:36.931Z,50.32
2022-10-01T18:34:38.109Z,50.11
2022-10-01T18:39:38.181Z,49.77
2022-10-01T18:44:37.432Z,49.22
2022-10-01T18:49:50.986Z,48.78
2022-10-01T18:55:06.059Z,49.04
2022-10-01T19:00:09.298Z,48.73
2022-10-01T19:05:26.228Z,49.36
2022-10-01T19:10:31.221Z,50.03
2022-10-01T19:15:36.372Z,50.14
2022-10-01T19:20:46.387Z,50.57
2022-10-01T19:25:46.679Z,50.99
2022-10-01T19:30:50.054Z,50.28
2022-10-01T19:35:48.330Z,50.25
2022-10-01T19:40:48.896Z,50.27
2022-10-01T19:45:50.074Z,50.06
2022-10-01T19:50:50.254Z,50.09
2022-10-01T19:55:50.453Z,51.53
2022-10-01T20:00:49.497Z,50.68
2022-10-01T20:05:49.333Z,49.64
2022-10-01T20:10:48.526Z,49.06
2022-10-01T20:15:48.593Z,48.96
2022-10-01T20:20:52.021Z,49.68
2022-10-01T20:25:55.435Z,50.23
2022-10-01T20:31:00.004Z,51.12
2022-10-01T20:36:01.407Z,51.63
2022-10-01T20:41:00.124Z,51.38
2022-10-01T20:45:58.357Z,51.60
2022-10-01T20:50:59.709Z,51.75
2022-10-01T20:56:01.251Z,52.30
2022-10-01T21:01:00.009Z,52.17
2022-10-01T21:05:59.318Z,52.43
2022-10-01T21:10:59.087Z,52.12
2022-10-01T21:16:02.888Z,51.78
2022-10-01T21:21:04.202Z,51.64
2022-10-01T21:26:08.279Z,52.51
2022-10-01T21:31:15.462Z,54.77
2022-10-01T21:36:18.833Z,61.88
2022-10-01T21:41:28.094Z,66.54
2022-10-01T21:46:31.856Z,69.62
2022-10-01T21:51:34.447Z,70.37
2022-10-01T21:56:42.778Z,72.90
2022-10-01T22:01:49.390Z,74.15
2022-10-01T22:06:50.401Z,74.50
2022-10-01T22:11:47.880Z,77.80
2022-10-01T22:16:49.935Z,78.50
2022-10-01T22:21:53.142Z,78.16
2022-10-01T22:26:53.348Z,78.46
2022-10-01T22:31:53.740Z,77.83
2022-10-01T22:36:54.143Z,76.93
2022-10-01T22:41:52.923Z,75.09
2022-10-01T22:47:11.196Z,74.29
2022-10-01T22:52:17.743Z,73.82
2022-10-01T22:57:21.970Z,73.74
2022-10-01T23:02:24.261Z,75.21
2022-10-01T23:07:24.492Z,76.62
2022-10-01T23:12:23.629Z,78.40
2022-10-01T23:17:23.431Z,78.41
2022-10-01T23:22:25.935Z,78.80
2022-10-01T23:27:31.246Z,77.73
2022-10-01T23:32:35.671Z,80.93
2022-10-01T23:37:49.957Z,84.12
2022-10-01T23:42:54.082Z,85.44
2022-10-01T23:47:56.162Z,87.16
2022-10-01T23:52:57.389Z,86.10
2022-10-01T23:58:00.960Z,85.65
